KMRN/MRN METAR and TAF weather

Enter ICAO airport designator
Station Type Date Time Source
KMRN METAR 2018/12/13 22:20 UTC NOAA

KMRN 132220Z AUTO 00000KT 10SM CLR 03/00 A3029 RMK AO2 T00310003


Station Type Date Time Source
KMRN Decoded METAR 2018/12/13 22:20 UTC NOAA

Morganton, Morganton-Lenoir Airport, NC, United States (KMRN) 35-49-17N 081-36-39W
Dec 13, 2018 - 05:20 PM EST / 2018.12.13 2220 UTC
Wind: Calm:0
Visibility: 10 mile(s):0
Sky conditions: clear
Temperature: 37.6 F (3.1 C)
Dew Point: 32.5 F (0.3 C)
Relative Humidity: 81%
Pressure (altimeter): 30.29 in. Hg (1025 hPa)
ob: KMRN 132220Z AUTO 00000KT 10SM CLR 03/00 A3029 RMK AO2 T00310003
cycle: 22

Station Type Date Time Source
KMRN TAF UTC NOAA

Error!


Example: see airport list